Time;durP1;ratioP1;P1;durP2;ratioP2;P2;SDS_P1;SDS_P2;PMS_P1;PMS_P2;Temp;Humidity;BMP_temperature;BMP_pressure;BME280_temperature;BME280_humidity;BME280_pressure;Samples;Min_cycle;Max_cycle;Signal;HPM_P1;HPM_P2
2022/08/18 00:02:04;;;;;;;6.45;5.60;;;20.70;42.30;;;;;;4979963;28;20209;-64
2022/08/18 00:04:32;;;;;;;8.40;6.05;;;20.60;49.50;;;;;;5009441;28;20198;-64
2022/08/18 00:06:59;;;;;;;6.15;5.55;;;20.60;48.50;;;;;;5011189;28;20410;-65
2022/08/18 00:09:25;;;;;;;7.13;6.38;;;20.40;54.50;;;;;;4985656;28;22090;-64
2022/08/18 00:11:52;;;;;;;7.20;6.45;;;20.50;60.80;;;;;;5009197;28;20202;-63
2022/08/18 00:14:20;;;;;;;7.47;6.13;;;20.50;61.00;;;;;;4997590;28;20207;-64
2022/08/18 00:16:50;;;;;;;8.98;6.22;;;19.80;66.20;;;;;;4982739;28;20207;-63
2022/08/18 00:19:17;;;;;;;8.63;6.53;;;20.40;64.10;;;;;;5010523;28;20202;-64
2022/08/18 00:21:44;;;;;;;7.07;6.38;;;;;;;;;;5009850;28;20197;-64
2022/08/18 00:24:11;;;;;;;6.70;6.10;;;20.30;64.00;;;;;;4984914;28;20489;-63
2022/08/18 00:26:38;;;;;;;7.28;6.32;;;20.10;67.90;;;;;;5009137;28;20198;-62
2022/08/18 00:29:05;;;;;;;7.60;6.90;;;20.10;82.90;;;;;;4987306;28;20832;-65
2022/08/18 00:31:32;;;;;;;8.07;7.28;;;20.00;79.40;;;;;;4998937;28;20205;-65
2022/08/18 00:34:00;;;;;;;8.80;6.35;;;20.30;83.30;;;;;;4995579;28;20460;-64
2022/08/18 00:36:30;;;;;;;8.43;7.05;;;20.10;81.20;;;;;;5014582;28;20710;-64
2022/08/18 00:38:57;;;;;;;7.25;6.47;;;20.00;80.80;;;;;;5006829;28;20198;-64
2022/08/18 00:41:25;;;;;;;12.13;7.22;;;19.90;83.50;;;;;;4987256;28;20210;-64
2022/08/18 00:43:53;;;;;;;11.07;6.43;;;19.90;85.00;;;;;;5005000;28;20767;-64
2022/08/18 00:46:22;;;;;;;9.93;7.70;;;19.80;87.10;;;;;;4978614;28;20309;-64
2022/08/18 00:48:50;;;;;;;7.50;6.80;;;19.70;88.70;;;;;;4982555;28;20249;-63
2022/08/18 00:51:23;;;;;;;7.63;6.93;;;19.90;92.30;;;;;;5012719;28;20205;-64
2022/08/18 00:53:57;;;;;;;9.63;7.18;;;19.80;91.60;;;;;;4995445;28;20212;-63
2022/08/18 00:56:28;;;;;;;7.93;6.85;;;19.90;90.80;;;;;;4985814;28;20553;-64
2022/08/18 00:58:59;;;;;;;9.07;7.20;;;19.80;90.90;;;;;;5005761;28;20396;-64
2022/08/18 01:01:30;;;;;;;8.27;7.47;;;19.80;92.80;;;;;;4998029;28;20256;-64
2022/08/18 01:04:02;;;;;;;9.50;7.65;;;19.80;93.60;;;;;;4979437;28;22396;-64
2022/08/18 01:06:36;;;;;;;9.63;8.25;;;19.50;96.70;;;;;;5010465;28;20194;-64
2022/08/18 01:09:04;;;;;;;10.25;8.40;;;19.80;96.20;;;;;;4996997;28;20339;-64
2022/08/18 01:11:31;;;;;;;10.23;8.00;;;19.80;96.50;;;;;;4986924;28;20224;-64
2022/08/18 01:13:58;;;;;;;8.95;7.65;;;20.00;96.70;;;;;;5004833;28;20783;-64
2022/08/18 01:22:04;;;;;;;9.90;7.38;;;20.00;96.30;;;;;;5007667;28;20766;-64
2022/08/18 01:27:22;;;;;;;8.80;7.88;;;19.80;94.30;;;;;;4987133;28;20586;-64
2022/08/18 01:29:50;;;;;;;8.80;8.00;;;19.90;94.70;;;;;;5010699;28;20222;-64
2022/08/18 01:32:21;;;;;;;10.10;7.60;;;19.90;94.10;;;;;;4990405;28;20201;-64
2022/08/18 01:34:50;;;;;;;8.77;7.88;;;19.70;92.10;;;;;;4989578;28;20203;-64
2022/08/18 01:37:19;;;;;;;10.63;7.07;;;19.60;91.30;;;;;;5007928;28;20229;-64
2022/08/18 01:39:47;;;;;;;8.88;7.30;;;19.60;90.70;;;;;;5009632;28;20577;-64
2022/08/18 01:42:16;;;;;;;8.07;7.28;;;19.40;91.50;;;;;;4986948;28;20707;-64
2022/08/18 01:44:43;;;;;;;11.32;7.07;;;19.50;89.10;;;;;;5012307;28;20252;-64
2022/08/18 01:47:12;;;;;;;8.23;7.22;;;19.50;89.60;;;;;;4995829;28;20234;-63
2022/08/18 01:49:41;;;;;;;11.80;7.18;;;19.50;85.20;;;;;;4999287;28;20719;-64
2022/08/18 01:52:09;;;;;;;10.88;8.15;;;19.50;86.00;;;;;;5000706;28;20202;-63
2022/08/18 01:54:36;;;;;;;9.77;8.77;;;19.50;87.70;;;;;;5012344;28;20869;-64
2022/08/18 01:57:04;;;;;;;10.63;8.60;;;19.80;93.00;;;;;;5002286;28;20194;-63
2022/08/18 01:59:34;;;;;;;10.05;8.98;;;19.60;90.70;;;;;;5001309;28;20225;-64
2022/08/18 02:02:01;;;;;;;10.57;9.27;;;19.70;92.20;;;;;;5009593;28;20194;-64
2022/08/18 02:04:33;;;;;;;10.18;9.15;;;19.00;93.10;;;;;;4988282;28;20251;-65
2022/08/18 02:07:00;;;;;;;10.02;9.02;;;19.80;93.80;;;;;;5000163;28;20666;-65
2022/08/18 02:09:26;;;;;;;11.57;10.38;;;19.80;93.70;;;;;;5009692;28;20308;-64
2022/08/18 02:11:53;;;;;;;10.55;9.50;;;19.90;94.10;;;;;;5013124;28;20213;-63
2022/08/18 02:14:21;;;;;;;12.32;10.35;;;19.80;93.20;;;;;;4985430;28;20356;-65
2022/08/18 02:16:48;;;;;;;13.98;11.38;;;19.60;95.60;;;;;;5013110;28;20573;-64
2022/08/18 02:19:15;;;;;;;13.23;11.02;;;19.80;94.60;;;;;;4993887;28;20203;-64
2022/08/18 02:21:42;;;;;;;18.27;11.27;;;19.80;95.70;;;;;;4987463;28;20210;-64
2022/08/18 02:24:09;;;;;;;17.90;11.23;;;19.90;96.70;;;;;;5011552;28;20649;-63
2022/08/18 02:26:35;;;;;;;12.73;11.10;;;19.90;97.70;;;;;;5012273;28;20544;-64
2022/08/18 02:29:02;;;;;;;19.15;10.85;;;20.00;98.10;;;;;;4982146;28;20218;-64
2022/08/18 02:31:30;;;;;;;12.65;11.18;;;19.90;98.40;;;;;;5013035;28;20206;-65
2022/08/18 02:33:58;;;;;;;15.27;11.30;;;20.00;98.70;;;;;;4996929;28;20198;-63
2022/08/18 02:36:24;;;;;;;12.07;10.85;;;20.00;98.50;;;;;;5000648;28;20817;-63
2022/08/18 02:38:51;;;;;;;14.38;10.80;;;20.00;98.50;;;;;;5005021;28;20969;-65
2022/08/18 02:41:19;;;;;;;15.60;11.00;;;20.00;98.10;;;;;;5013846;28;20198;-64
2022/08/18 02:43:47;;;;;;;12.93;11.32;;;20.00;98.70;;;;;;5017305;28;20545;-64
2022/08/18 02:46:14;;;;;;;14.40;11.25;;;19.80;98.70;;;;;;4986461;28;20237;-65
2022/08/18 02:48:42;;;;;;;16.48;10.88;;;20.00;97.90;;;;;;5017184;28;20233;-64
2022/08/18 02:51:12;;;;;;;17.27;12.10;;;20.10;99.90;;;;;;4986081;28;20226;-64
2022/08/18 02:53:40;;;;;;;13.77;11.13;;;20.00;98.50;;;;;;4989155;28;20217;-64
2022/08/18 02:56:23;;;;;;;13.35;11.25;;;20.10;98.90;;;;;;5010742;28;20233;-63
2022/08/18 02:58:53;;;;;;;14.75;11.43;;;20.10;98.90;;;;;;5013136;28;20209;-63
2022/08/18 03:01:21;;;;;;;12.48;10.93;;;20.00;98.40;;;;;;4998358;28;20593;-65
2022/08/18 03:03:50;;;;;;;12.45;11.20;;;19.80;99.70;;;;;;5013875;28;20729;-64
2022/08/18 03:06:18;;;;;;;15.02;11.30;;;20.00;98.50;;;;;;4999836;28;20589;-64
2022/08/18 03:08:47;;;;;;;13.73;10.98;;;19.60;99.90;;;;;;4999618;28;20591;-64
2022/08/18 03:11:15;;;;;;;10.70;9.60;;;20.10;99.00;;;;;;5008699;28;20198;-64
2022/08/18 03:13:42;;;;;;;16.58;11.02;;;20.10;98.80;;;;;;5015410;28;20304;-64
2022/08/18 03:16:09;;;;;;;16.60;11.48;;;20.10;98.20;;;;;;4983803;28;20211;-65
2022/08/18 03:18:36;;;;;;;16.70;11.75;;;20.10;98.50;;;;;;5013553;28;20198;-64
2022/08/18 03:21:06;;;;;;;16.13;12.65;;;20.10;98.60;;;;;;4994003;28;21139;-65
2022/08/18 03:23:33;;;;;;;19.58;13.43;;;20.10;99.90;;;;;;5003896;28;20229;-64
2022/08/18 03:26:00;;;;;;;17.25;13.18;;;20.10;99.30;;;;;;4994354;28;20777;-64
2022/08/18 03:28:27;;;;;;;21.08;12.32;;;20.20;99.20;;;;;;4998836;28;20981;-64
2022/08/18 03:30:54;;;;;;;17.90;14.05;;;20.40;99.90;;;;;;4985218;28;20237;-65
2022/08/18 03:33:21;;;;;;;18.55;13.98;;;20.30;99.60;;;;;;5003655;28;20288;-65
2022/08/18 03:35:48;;;;;;;17.95;12.90;;;20.30;99.90;;;;;;4998476;28;20225;-65
2022/08/18 03:38:16;;;;;;;24.33;13.73;;;19.40;99.20;;;;;;5000581;28;20202;-65
2022/08/18 03:40:43;;;;;;;21.80;13.25;;;20.40;99.90;;;;;;5001848;28;20202;-65
2022/08/18 03:43:10;;;;;;;19.00;14.30;;;20.40;99.90;;;;;;4999343;28;20198;-65
2022/08/18 03:45:37;;;;;;;23.30;14.02;;;20.50;99.90;;;;;;5016666;28;20237;-64
2022/08/18 03:48:04;;;;;;;19.33;14.23;;;20.50;99.90;;;;;;4988769;28;20210;-64
2022/08/18 03:50:32;;;;;;;21.90;13.88;;;20.50;99.90;;;;;;4998787;28;20248;-65
2022/08/18 03:52:59;;;;;;;21.17;13.38;;;20.50;99.90;;;;;;5005293;28;20202;-65
2022/08/18 03:55:29;;;;;;;21.70;13.77;;;20.50;99.90;;;;;;5005878;28;20206;-65
2022/08/18 03:58:00;;;;;;;19.48;13.57;;;20.60;99.90;;;;;;5009643;28;20256;-65
2022/08/18 04:00:28;;;;;;;17.58;14.13;;;;;;;;;;4996078;28;20297;-64
2022/08/18 04:02:56;;;;;;;15.68;12.45;;;20.60;99.90;;;;;;4988725;28;20218;-64
2022/08/18 04:05:22;;;;;;;20.00;13.52;;;21.20;99.90;;;;;;5012617;28;20198;-65
2022/08/18 04:07:49;;;;;;;18.90;12.85;;;20.50;99.90;;;;;;4998570;28;20209;-65
2022/08/18 04:10:16;;;;;;;16.10;12.85;;;20.60;99.90;;;;;;5014255;28;20241;-65
2022/08/18 04:12:44;;;;;;;18.73;12.73;;;20.70;99.90;;;;;;5000611;28;20202;-64
2022/08/18 04:15:12;;;;;;;19.85;12.95;;;20.70;99.90;;;;;;5014375;28;20194;-65
2022/08/18 04:17:38;;;;;;;25.23;13.60;;;20.70;99.90;;;;;;4979233;28;20297;-65
2022/08/18 04:20:06;;;;;;;23.83;12.93;;;20.70;99.90;;;;;;5015024;28;20205;-64
2022/08/18 04:22:33;;;;;;;19.35;12.93;;;20.70;99.90;;;;;;4987189;28;21118;-65
2022/08/18 04:25:00;;;;;;;22.27;13.85;;;20.70;99.90;;;;;;5014609;28;20224;-65
2022/08/18 04:27:28;;;;;;;19.00;13.77;;;20.60;99.90;;;;;;4993821;28;20206;-65
2022/08/18 04:29:57;;;;;;;22.33;13.32;;;20.90;99.90;;;;;;5010222;28;20226;-65
2022/08/18 04:32:24;;;;;;;19.73;14.00;;;;;;;;;;4995432;28;20229;-64
2022/08/18 04:34:51;;;;;;;31.85;15.65;;;20.80;99.90;;;;;;4982037;28;20214;-65
2022/08/18 04:37:18;;;;;;;28.20;14.48;;;20.50;99.90;;;;;;5006589;28;20309;-66
2022/08/18 04:39:45;;;;;;;23.27;14.77;;;20.70;99.90;;;;;;4997636;28;20198;-65
2022/08/18 04:42:12;;;;;;;29.15;15.05;;;19.90;99.90;;;;;;5013637;28;20198;-64
2022/08/18 04:44:39;;;;;;;24.98;13.63;;;20.40;99.90;;;;;;5002083;28;20222;-65
2022/08/18 04:47:08;;;;;;;21.63;14.10;;;20.70;99.90;;;;;;5012963;28;20230;-65
2022/08/18 04:49:35;;;;;;;25.52;13.80;;;20.60;99.90;;;;;;4990081;28;20308;-65
2022/08/18 04:54:46;;;;;;;24.05;12.93;;;20.60;99.90;;;;;;4995211;28;20209;-65
2022/08/18 04:57:17;;;;;;;24.80;14.10;;;20.40;99.90;;;;;;5010153;28;20201;-65
2022/08/18 04:59:47;;;;;;;21.15;13.85;;;20.50;99.90;;;;;;4995155;28;20237;-64
2022/08/18 05:02:17;;;;;;;25.77;14.35;;;20.50;99.90;;;;;;5011165;28;20195;-65
2022/08/18 05:04:45;;;;;;;29.50;16.05;;;20.70;99.90;;;;;;4989387;28;21311;-64
2022/08/18 05:07:15;;;;;;;30.05;16.05;;;20.40;99.90;;;;;;5013643;28;20206;-65
2022/08/18 05:09:42;;;;;;;30.85;16.08;;;20.40;99.90;;;;;;4987153;28;20672;-64
2022/08/18 05:12:12;;;;;;;30.98;16.23;;;20.40;99.90;;;;;;5008443;28;20202;-64
2022/08/18 05:14:39;;;;;;;30.88;16.05;;;20.40;99.90;;;;;;4994101;28;20742;-65
2022/08/18 05:17:06;;;;;;;33.92;17.15;;;20.40;99.90;;;;;;5013698;28;20202;-65
2022/08/18 05:19:34;;;;;;;28.70;16.35;;;20.40;99.90;;;;;;4980894;28;21274;-65
2022/08/18 05:22:02;;;;;;;25.13;15.43;;;20.40;99.90;;;;;;5010520;28;20680;-65
2022/08/18 05:24:31;;;;;;;32.35;15.07;;;20.40;99.90;;;;;;5001508;28;20289;-65
2022/08/18 05:26:58;;;;;;;27.52;14.55;;;20.40;99.90;;;;;;4992819;28;20728;-64
2022/08/18 05:29:25;;;;;;;23.60;14.15;;;21.20;99.90;;;;;;4987640;28;20241;-64
2022/08/18 05:31:53;;;;;;;24.48;15.00;;;20.40;99.90;;;;;;5009592;28;20198;-64
2022/08/18 05:34:21;;;;;;;21.83;12.73;;;20.40;99.90;;;;;;4996982;28;20206;-65
2022/08/18 05:37:07;;;;;;;25.20;13.35;;;20.40;99.90;;;;;;4984395;28;20589;-65
2022/08/18 05:39:40;;;;;;;22.38;12.80;;;20.40;99.90;;;;;;5005726;28;20431;-64
2022/08/18 05:42:10;;;;;;;24.35;12.98;;;20.40;99.90;;;;;;4994475;28;20350;-65
2022/08/18 05:44:43;;;;;;;28.92;12.20;;;20.40;99.90;;;;;;4988380;28;20412;-64
2022/08/18 05:47:13;;;;;;;21.52;11.85;;;20.40;99.90;;;;;;5007795;28;20240;-64
2022/08/18 05:49:42;;;;;;;21.08;12.55;;;20.40;99.90;;;;;;4989289;28;20237;-65
2022/08/18 05:52:16;;;;;;;20.45;11.32;;;20.40;99.90;;;;;;4984553;28;20672;-64
2022/08/18 05:57:37;;;;;;;20.73;11.30;;;20.20;99.90;;;;;;4973999;28;20527;-65
2022/08/18 06:00:08;;;;;;;19.33;11.90;;;20.40;99.90;;;;;;5008937;28;20468;-64
2022/08/18 06:02:39;;;;;;;22.48;11.93;;;20.50;99.90;;;;;;4997234;28;20537;-65
2022/08/18 06:05:10;;;;;;;19.73;11.93;;;20.50;99.90;;;;;;4995236;28;20205;-64
2022/08/18 06:07:45;;;;;;;21.90;11.68;;;20.50;99.90;;;;;;4984505;28;20465;-65
2022/08/18 06:10:13;;;;;;;22.55;12.20;;;20.50;99.90;;;;;;5006521;28;20699;-64
2022/08/18 06:12:43;;;;;;;20.77;11.27;;;20.50;99.90;;;;;;4984610;28;20217;-65
2022/08/18 06:15:15;;;;;;;22.13;12.25;;;20.60;99.90;;;;;;5003729;28;20204;-63
2022/08/18 06:18:10;;;;;;;18.85;12.38;;;20.60;99.90;;;;;;4998275;28;20645;-65
2022/08/18 06:20:50;;;;;;;18.50;11.60;;;20.60;99.90;;;;;;4986425;28;20260;-64
2022/08/18 06:23:28;;;;;;;17.70;12.43;;;20.70;99.90;;;;;;4985844;28;20264;-65
2022/08/18 06:26:08;;;;;;;19.20;12.13;;;20.70;99.90;;;;;;4998443;28;20198;-64
2022/08/18 06:28:47;;;;;;;22.50;11.50;;;20.70;99.90;;;;;;4996793;28;20671;-66
2022/08/18 06:31:21;;;;;;;19.25;11.60;;;20.80;99.90;;;;;;5001753;28;20222;-65
2022/08/18 06:33:57;;;;;;;17.08;11.27;;;21.00;99.90;;;;;;5008082;28;20309;-65
2022/08/18 06:36:34;;;;;;;20.88;12.88;;;20.90;99.90;;;;;;5012304;28;20198;-64
2022/08/18 06:39:09;;;;;;;20.58;12.75;;;20.90;99.90;;;;;;4980309;28;20353;-67
2022/08/18 06:41:39;;;;;;;18.95;12.50;;;20.90;99.90;;;;;;4992389;28;20225;-66
2022/08/18 06:44:08;;;;;;;18.60;12.23;;;21.30;99.90;;;;;;4989668;28;20206;-64
2022/08/18 06:46:45;;;;;;;19.25;12.45;;;20.90;99.90;;;;;;4997549;28;20226;-66
2022/08/18 06:49:31;;;;;;;19.08;11.70;;;20.90;99.90;;;;;;5012094;28;21083;-65
2022/08/18 06:51:58;;;;;;;15.57;11.32;;;21.00;99.90;;;;;;5011353;28;20202;-65
2022/08/18 06:54:30;;;;;;;16.88;11.63;;;21.00;99.90;;;;;;4988484;28;20211;-65
2022/08/18 06:56:58;;;;;;;20.30;11.80;;;21.00;99.90;;;;;;5006589;28;20264;-64
2022/08/18 06:59:27;;;;;;;16.27;10.45;;;21.00;99.90;;;;;;4995977;28;20198;-65
2022/08/18 07:02:00;;;;;;;16.92;12.20;;;21.00;99.90;;;;;;4993459;28;20202;-65
2022/08/18 07:04:38;;;;;;;16.92;11.80;;;21.10;99.90;;;;;;4999954;28;20783;-65
2022/08/18 07:07:18;;;;;;;18.48;10.82;;;21.00;99.90;;;;;;5011219;28;20194;-64
2022/08/18 07:09:48;;;;;;;16.17;12.13;;;21.00;99.90;;;;;;4986477;28;20210;-66
2022/08/18 07:12:21;;;;;;;17.52;12.05;;;21.00;99.90;;;;;;5011727;28;20194;-65
2022/08/18 07:14:51;;;;;;;14.85;11.68;;;21.10;99.90;;;;;;4987427;28;20241;-64
2022/08/18 07:17:24;;;;;;;15.90;12.40;;;21.10;99.90;;;;;;4994099;28;20548;-65
2022/08/18 07:20:17;;;;;;;19.25;12.70;;;21.20;99.90;;;;;;5009177;28;20210;-65
2022/08/18 07:22:56;;;;;;;15.35;12.02;;;21.50;99.90;;;;;;5010126;28;20194;-65
2022/08/18 07:25:29;;;;;;;14.90;11.82;;;22.40;99.90;;;;;;4984292;28;20214;-66
2022/08/18 07:27:56;;;;;;;17.95;12.35;;;21.40;99.90;;;;;;4989670;28;20536;-65
2022/08/18 07:30:31;;;;;;;14.48;12.27;;;21.30;99.90;;;;;;5002956;28;20242;-65
2022/08/18 07:33:09;;;;;;;17.33;12.20;;;21.50;99.90;;;;;;4982357;28;20253;-64
2022/08/18 07:35:49;;;;;;;19.30;12.77;;;21.20;99.90;;;;;;5012676;28;20199;-65
2022/08/18 07:38:23;;;;;;;18.75;12.68;;;21.30;99.90;;;;;;5011168;28;20198;-65
2022/08/18 07:40:57;;;;;;;18.90;11.85;;;21.20;99.90;;;;;;4984857;28;20214;-65
2022/08/18 07:43:28;;;;;;;18.23;13.15;;;21.30;99.90;;;;;;5017682;28;20734;-65
2022/08/18 07:46:04;;;;;;;17.08;11.90;;;21.30;99.90;;;;;;4997908;28;21419;-65
2022/08/18 07:48:33;;;;;;;18.48;12.98;;;21.30;99.50;;;;;;5000521;28;20209;-65
2022/08/18 07:51:12;;;;;;;21.13;12.77;;;21.20;99.60;;;;;;5013753;28;20234;-64
2022/08/18 07:53:50;;;;;;;18.75;11.98;;;21.30;99.90;;;;;;5012812;28;20234;-65
2022/08/18 07:56:25;;;;;;;16.40;11.82;;;21.40;99.90;;;;;;4991736;28;20213;-65
2022/08/18 07:58:57;;;;;;;26.10;13.38;;;21.40;99.90;;;;;;5013056;28;20193;-65
2022/08/18 08:01:34;;;;;;;19.05;12.93;;;21.50;99.10;;;;;;5016153;28;20197;-64
2022/08/18 08:04:12;;;;;;;22.40;13.50;;;21.40;98.70;;;;;;4989323;28;21119;-65
2022/08/18 08:06:42;;;;;;;18.83;11.60;;;21.60;98.30;;;;;;5013200;28;20202;-66
2022/08/18 08:09:22;;;;;;;16.90;11.68;;;21.70;97.90;;;;;;5016363;28;20198;-64
2022/08/18 08:11:58;;;;;;;18.20;11.95;;;21.70;98.20;;;;;;4970845;28;20245;-63
2022/08/18 08:14:39;;;;;;;14.93;10.98;;;21.60;97.20;;;;;;5005988;28;20204;-65
2022/08/18 08:17:16;;;;;;;19.67;12.57;;;21.80;96.40;;;;;;4996620;28;20230;-65
2022/08/18 08:20:07;;;;;;;18.10;11.82;;;21.90;96.00;;;;;;5002766;28;20307;-66
2022/08/18 08:22:40;;;;;;;21.15;10.40;;;22.20;94.50;;;;;;5010850;28;20294;-64
2022/08/18 08:25:13;;;;;;;14.40;11.32;;;21.90;92.90;;;;;;5008451;28;20686;-64
2022/08/18 08:27:59;;;;;;;16.83;11.57;;;21.90;91.70;;;;;;4989272;28;20202;-65
2022/08/18 08:30:28;;;;;;;20.52;11.50;;;21.80;91.00;;;;;;5006217;28;21166;-65
2022/08/18 08:33:05;;;;;;;20.75;10.88;;;21.90;92.00;;;;;;4985240;28;20800;-64
2022/08/18 08:35:38;;;;;;;20.95;11.27;;;22.00;90.90;;;;;;4994728;28;20206;-64
2022/08/18 08:38:11;;;;;;;19.88;10.73;;;21.30;90.80;;;;;;5006786;28;20222;-64
2022/08/18 08:40:46;;;;;;;19.73;10.60;;;22.00;90.00;;;;;;5008700;28;20218;-64
2022/08/18 08:43:19;;;;;;;13.75;10.00;;;22.10;90.10;;;;;;4983029;28;20221;-64
2022/08/18 08:45:51;;;;;;;14.43;10.38;;;22.10;90.70;;;;;;5007152;28;20839;-64
2022/08/18 08:48:23;;;;;;;15.68;9.48;;;22.10;84.90;;;;;;4980672;28;20222;-64
2022/08/18 08:50:55;;;;;;;10.02;8.65;;;22.00;87.80;;;;;;4986505;28;20238;-65
2022/08/18 08:53:26;;;;;;;16.20;10.05;;;22.10;87.20;;;;;;5029277;22;20235;-64
2022/08/18 08:55:57;;;;;;;14.82;9.93;;;22.00;83.70;;;;;;5012844;28;20582;-64
2022/08/18 08:58:32;;;;;;;12.07;8.70;;;22.00;88.50;;;;;;4995350;28;20230;-64
2022/08/18 09:00:59;;;;;;;15.82;9.98;;;22.00;88.10;;;;;;5024975;28;20698;-64
2022/08/18 09:03:36;;;;;;;15.07;9.70;;;22.00;88.30;;;;;;4997552;28;20244;-64
2022/08/18 09:06:17;;;;;;;11.13;8.40;;;22.30;89.00;;;;;;4993815;28;20232;-63
2022/08/18 09:09:03;;;;;;;12.43;8.93;;;22.40;87.50;;;;;;5028514;28;20221;-64
2022/08/18 09:12:01;;;;;;;12.15;9.00;;;22.40;85.70;;;;;;4999745;28;20826;-64
2022/08/18 09:15:03;;;;;;;16.35;9.00;;;22.60;87.10;;;;;;4994577;28;20245;-64
2022/08/18 09:17:53;;;;;;;11.82;7.95;;;22.40;81.00;;;;;;5015666;28;20208;-63
2022/08/18 09:20:49;;;;;;;12.75;8.13;;;22.40;79.10;;;;;;5005650;28;20406;-63
2022/08/18 09:23:19;;;;;;;14.40;8.27;;;22.60;66.50;;;;;;4978254;28;20319;-65
2022/08/18 09:25:50;;;;;;;11.63;8.10;;;22.60;65.10;;;;;;5028316;28;20224;-63
2022/08/18 09:28:19;;;;;;;8.35;7.25;;;22.70;65.80;;;;;;4991829;28;20240;-63
2022/08/18 09:31:09;;;;;;;8.80;7.10;;;22.60;51.30;;;;;;5025664;28;20941;-65
2022/08/18 09:33:56;;;;;;;9.13;6.47;;;22.70;53.20;;;;;;5023663;28;20233;-64
2022/08/18 09:36:36;;;;;;;13.35;7.45;;;22.50;61.20;;;;;;5002942;28;20705;-64
2022/08/18 09:42:03;;;;;;;11.73;7.30;;;22.20;91.10;;;;;;5011624;28;20935;-65
2022/08/18 09:47:12;;;;;;;13.07;7.25;;;22.10;94.50;;;;;;5018790;22;20389;-65
2022/08/18 09:49:52;;;;;;;11.38;7.40;;;21.90;92.50;;;;;;4972247;28;20222;-64
2022/08/18 09:53:00;;;;;;;8.65;7.18;;;22.10;93.80;;;;;;4993162;28;20354;-66
2022/08/18 09:55:53;;;;;;;13.45;7.55;;;22.00;94.10;;;;;;4988337;28;20512;-66
2022/08/18 09:58:48;;;;;;;9.95;6.30;;;22.50;91.80;;;;;;4984234;28;20672;-65
2022/08/18 10:01:40;;;;;;;10.55;6.75;;;22.60;81.90;;;;;;4979106;28;20473;-65
2022/08/18 10:04:30;;;;;;;10.30;6.15;;;24.50;59.20;;;;;;4990046;28;20217;-66
2022/08/18 10:07:17;;;;;;;9.65;5.80;;;23.00;57.70;;;;;;5008712;28;20230;-65
2022/08/18 10:09:54;;;;;;;9.63;6.15;;;23.10;52.90;;;;;;4988301;28;20241;-65
2022/08/18 10:12:48;;;;;;;10.60;6.70;;;23.30;45.30;;;;;;4990591;28;20235;-65
2022/08/18 10:15:42;;;;;;;10.00;6.13;;;23.20;34.70;;;;;;4972546;28;20214;-64
2022/08/18 10:18:33;;;;;;;7.03;5.82;;;23.10;34.40;;;;;;4995978;28;20697;-65
2022/08/18 10:21:11;;;;;;;7.70;6.25;;;23.10;34.70;;;;;;4992683;28;20264;-65
2022/08/18 10:23:55;;;;;;;9.70;5.85;;;23.00;39.10;;;;;;4992727;28;20252;-64
2022/08/18 10:26:59;;;;;;;6.88;6.22;;;23.20;43.10;;;;;;4999932;28;20205;-66
2022/08/18 10:29:56;;;;;;;11.70;5.72;;;23.00;38.80;;;;;;4960603;28;20206;-64
2022/08/18 10:32:45;;;;;;;9.07;5.47;;;22.00;43.90;;;;;;5002747;28;20230;-65
2022/08/18 10:35:51;;;;;;;8.68;6.05;;;22.90;37.20;;;;;;5042952;22;20237;-65
2022/08/18 10:38:48;;;;;;;7.32;6.43;;;22.80;44.00;;;;;;4989972;28;20868;-66
2022/08/18 10:41:25;;;;;;;10.02;6.43;;;22.70;47.80;;;;;;5002050;28;20198;-65
2022/08/18 10:43:56;;;;;;;10.85;6.70;;;22.70;50.20;;;;;;4984985;28;20206;-65
2022/08/18 10:46:26;;;;;;;16.13;6.38;;;20.90;50.80;;;;;;4987219;28;20215;-65
2022/08/18 10:49:22;;;;;;;5.65;4.97;;;22.80;49.70;;;;;;4997090;28;20209;-65
2022/08/18 10:52:03;;;;;;;11.20;5.75;;;22.90;51.10;;;;;;4991706;28;20226;-66
2022/08/18 10:54:44;;;;;;;6.03;5.45;;;22.70;32.80;;;;;;4984410;28;20593;-65
2022/08/18 10:57:20;;;;;;;9.60;6.85;;;23.00;28.60;;;;;;5000322;28;20253;-64
2022/08/18 10:59:53;;;;;;;7.60;5.85;;;22.90;37.00;;;;;;4989901;28;21573;-65
2022/08/18 11:02:43;;;;;;;12.43;6.40;;;22.90;35.40;;;;;;4985541;28;20215;-66
2022/08/18 11:05:13;;;;;;;10.98;6.72;;;22.80;47.50;;;;;;4985372;28;20222;-65
2022/08/18 11:07:45;;;;;;;6.38;5.63;;;22.90;44.60;;;;;;4997403;28;20606;-65
2022/08/18 11:10:21;;;;;;;7.82;5.45;;;22.80;37.90;;;;;;4991298;28;20224;-65
2022/08/18 11:13:02;;;;;;;12.95;5.50;;;22.60;42.10;;;;;;4987040;28;20233;-64
2022/08/18 11:15:38;;;;;;;8.07;6.00;;;22.70;43.20;;;;;;4996287;28;20630;-64
2022/08/18 11:18:27;;;;;;;9.73;5.85;;;22.30;44.20;;;;;;4984389;28;20237;-66
2022/08/18 11:20:55;;;;;;;6.78;4.97;;;22.60;43.60;;;;;;4998606;28;20209;-65
2022/08/18 11:23:22;;;;;;;6.93;5.80;;;22.60;42.80;;;;;;4992568;28;20351;-65
2022/08/18 11:25:50;;;;;;;8.70;6.00;;;22.60;47.50;;;;;;4994403;28;20739;-65
2022/08/18 11:28:19;;;;;;;9.20;5.80;;;22.30;51.60;;;;;;5003282;28;20237;-65
2022/08/18 11:30:50;;;;;;;9.05;4.88;;;22.60;49.60;;;;;;5001503;28;20225;-65
2022/08/18 11:33:20;;;;;;;11.15;5.85;;;22.60;47.60;;;;;;4983564;28;20260;-65
2022/08/18 11:35:51;;;;;;;10.10;6.13;;;22.60;50.20;;;;;;5005788;28;20605;-65
2022/08/18 11:38:19;;;;;;;7.82;5.88;;;22.60;50.00;;;;;;4989998;28;20966;-65
2022/08/18 11:40:50;;;;;;;9.52;5.97;;;22.80;48.50;;;;;;4987108;28;20267;-65
2022/08/18 11:43:25;;;;;;;10.77;5.97;;;22.80;46.00;;;;;;5008311;28;20276;-65
2022/08/18 11:45:54;;;;;;;7.82;5.65;;;23.00;56.30;;;;;;5016221;28;21650;-64
2022/08/18 11:48:33;;;;;;;11.07;5.63;;;24.20;48.80;;;;;;4979396;28;20794;-64
2022/08/18 11:51:03;;;;;;;9.57;5.63;;;22.80;40.20;;;;;;4995677;28;20226;-66
2022/08/18 11:53:41;;;;;;;7.97;5.07;;;21.60;38.10;;;;;;4977384;28;20267;-65
2022/08/18 11:56:18;;;;;;;7.85;5.10;;;23.00;34.50;;;;;;4994051;28;20337;-65
2022/08/18 11:58:48;;;;;;;5.63;4.47;;;22.80;32.70;;;;;;5003205;28;20222;-64
2022/08/18 12:01:36;;;;;;;7.80;4.32;;;22.90;25.20;;;;;;5011183;28;20233;-64
2022/08/18 12:04:16;;;;;;;7.43;4.38;;;25.00;28.20;;;;;;4977860;28;20233;-64
2022/08/18 12:06:58;;;;;;;6.57;4.25;;;23.00;31.80;;;;;;4977176;28;20710;-64
2022/08/18 12:09:33;;;;;;;12.73;4.28;;;23.00;32.70;;;;;;4986161;28;20769;-64
2022/08/18 12:12:04;;;;;;;7.32;4.28;;;23.10;38.30;;;;;;4987012;28;20230;-64
2022/08/18 12:14:35;;;;;;;7.05;4.72;;;23.00;39.30;;;;;;5006241;28;20229;-64
2022/08/18 12:17:03;;;;;;;9.60;4.57;;;23.10;45.30;;;;;;5004786;28;21021;-64
2022/08/18 12:19:31;;;;;;;10.57;4.32;;;;;;;;;;4967765;28;20602;-65
2022/08/18 12:22:00;;;;;;;12.63;5.28;;;22.70;45.50;;;;;;4977930;28;20355;-65
2022/08/18 12:24:32;;;;;;;7.55;4.40;;;22.80;42.80;;;;;;4990689;28;20752;-63
2022/08/18 12:27:00;;;;;;;5.15;4.35;;;22.80;41.00;;;;;;4991047;28;20210;-65
2022/08/18 12:29:27;;;;;;;6.70;4.13;;;22.70;33.20;;;;;;5002001;28;20648;-64
2022/08/18 12:31:56;;;;;;;6.25;3.83;;;22.90;31.10;;;;;;5003153;28;20240;-66
2022/08/18 12:34:25;;;;;;;10.65;3.95;;;23.00;28.30;;;;;;4968171;28;20217;-65
2022/08/18 12:36:54;;;;;;;7.68;4.00;;;23.00;26.10;;;;;;4994580;28;20230;-64
2022/08/18 12:39:21;;;;;;;5.78;4.20;;;23.10;26.10;;;;;;4977411;28;20233;-65
2022/08/18 12:41:48;;;;;;;6.70;4.03;;;23.10;17.70;;;;;;5011028;28;20222;-65
2022/08/18 12:44:15;;;;;;;5.35;4.20;;;23.20;15.80;;;;;;4993532;28;20214;-66
2022/08/18 12:46:42;;;;;;;5.97;3.85;;;23.20;5.90;;;;;;5009339;28;20202;-65
2022/08/18 12:49:15;;;;;;;6.22;3.88;;;23.10;9.00;;;;;;4967040;28;20229;-64
2022/08/18 12:51:42;;;;;;;5.75;3.67;;;23.10;12.30;;;;;;4994049;28;20280;-65
2022/08/18 12:56:37;;;;;;;6.00;3.80;;;23.10;4.80;;;;;;5043440;22;20263;-64
2022/08/18 12:59:06;;;;;;;10.80;3.53;;;23.20;16.90;;;;;;5026534;28;21043;-65
2022/08/18 13:01:34;;;;;;;12.27;4.43;;;23.50;22.80;;;;;;5029519;28;20228;-64
2022/08/18 13:04:01;;;;;;;11.50;4.50;;;23.60;20.80;;;;;;5031860;28;20201;-65
2022/08/18 13:06:29;;;;;;;13.20;4.18;;;22.80;25.20;;;;;;5017835;28;20205;-64
2022/08/18 13:08:56;;;;;;;7.97;4.28;;;22.90;27.70;;;;;;5022989;28;23870;-65
2022/08/18 13:11:24;;;;;;;11.65;4.50;;;22.50;28.80;;;;;;5027656;28;20233;-64
2022/08/18 13:13:52;;;;;;;8.05;4.68;;;22.50;34.20;;;;;;5026453;28;20705;-65
2022/08/18 13:16:19;;;;;;;10.18;4.38;;;22.60;35.60;;;;;;5033868;28;20728;-64
2022/08/18 13:18:46;;;;;;;11.68;4.45;;;22.60;39.50;;;;;;5030069;28;20536;-65
2022/08/18 13:21:16;;;;;;;10.32;4.75;;;22.70;35.00;;;;;;4995701;28;20225;-64
2022/08/18 13:23:48;;;;;;;12.65;4.25;;;22.60;39.30;;;;;;5024030;28;21031;-65
2022/08/18 13:26:21;;;;;;;9.70;4.72;;;22.50;39.80;;;;;;5017900;28;20587;-64